Time;durP1;ratioP1;P1;durP2;ratioP2;P2;SDS_P1;SDS_P2;PMS_P1;PMS_P2;Temp;Humidity;BMP_temperature;BMP_pressure;BME280_temperature;BME280_humidity;BME280_pressure;Samples;Min_cycle;Max_cycle;Signal;HPM_P1;HPM_P2
2023/08/24 00:01:38;;;;;;;4.18;3.00;;;23.40;88.50;;;;;;9663755;23;20605;-92
2023/08/24 00:05:23;;;;;;;3.08;2.78;;;23.40;88.80;;;;;;9663583;23;20165;-91
2023/08/24 00:09:09;;;;;;;3.75;2.88;;;23.30;89.00;;;;;;9663517;23;20185;-91
2023/08/24 00:12:55;;;;;;;5.28;3.00;;;23.30;89.20;;;;;;9663617;23;20214;-91
2023/08/24 00:16:40;;;;;;;9.52;2.90;;;23.30;89.30;;;;;;9663028;23;20189;-92
2023/08/24 00:20:27;;;;;;;3.72;2.95;;;23.20;90.10;;;;;;9662571;23;20639;-92
2023/08/24 00:24:13;;;;;;;3.28;2.97;;;23.10;89.60;;;;;;9662784;23;20584;-92
2023/08/24 00:27:58;;;;;;;3.58;3.10;;;23.10;89.80;;;;;;9662597;23;20264;-91
2023/08/24 00:31:44;;;;;;;4.57;3.47;;;23.00;89.90;;;;;;9662423;23;20204;-92
2023/08/24 00:35:30;;;;;;;5.40;2.92;;;23.00;90.00;;;;;;9662892;23;20153;-91
2023/08/24 00:39:16;;;;;;;3.80;3.40;;;22.90;90.00;;;;;;9689292;23;20852;-92
2023/08/24 00:43:02;;;;;;;4.50;3.15;;;22.90;90.00;;;;;;9662840;23;20641;-91
2023/08/24 00:46:48;;;;;;;7.25;3.50;;;22.80;90.00;;;;;;9662759;23;20643;-92
2023/08/24 00:50:34;;;;;;;5.45;3.20;;;22.70;90.10;;;;;;9662404;23;20633;-91
2023/08/24 00:54:20;;;;;;;6.43;3.58;;;22.70;90.20;;;;;;9662010;23;20488;-91
2023/08/24 00:58:06;;;;;;;6.32;3.80;;;22.70;90.20;;;;;;9661895;23;20181;-92
2023/08/24 01:01:52;;;;;;;6.82;3.70;;;22.60;90.20;;;;;;9662817;23;20578;-91
2023/08/24 01:05:38;;;;;;;3.70;3.30;;;22.60;90.20;;;;;;9661600;23;20173;-91
2023/08/24 01:09:24;;;;;;;4.90;3.50;;;22.50;90.20;;;;;;9662655;23;20189;-92
2023/08/24 01:13:11;;;;;;;4.90;3.40;;;22.50;90.30;;;;;;9662230;23;20162;-91
2023/08/24 01:17:01;;;;;;;5.13;3.50;;;22.40;90.40;;;;;;9661868;23;20257;-91
2023/08/24 01:20:48;;;;;;;4.80;3.30;;;22.40;90.50;;;;;;9661646;23;20813;-91
2023/08/24 01:24:40;;;;;;;3.75;3.35;;;22.30;90.80;;;;;;9662072;23;20167;-91
2023/08/24 01:28:26;;;;;;;4.65;3.22;;;22.30;90.50;;;;;;9661684;23;20238;-91
2023/08/24 01:32:12;;;;;;;6.10;3.65;;;22.20;90.50;;;;;;9662462;23;20215;-91
2023/08/24 01:35:58;;;;;;;5.70;3.22;;;22.20;90.70;;;;;;9662370;23;20255;-91
2023/08/24 01:39:56;;;;;;;3.92;3.53;;;22.10;90.70;;;;;;9661565;23;20215;-92
2023/08/24 01:43:49;;;;;;;4.88;3.40;;;22.10;90.80;;;;;;9661454;23;20203;-91
2023/08/24 01:47:36;;;;;;;5.78;3.92;;;22.00;90.80;;;;;;9661403;23;20177;-91
2023/08/24 01:51:23;;;;;;;5.57;3.45;;;22.00;91.00;;;;;;9661527;23;20677;-91
2023/08/24 01:55:08;;;;;;;6.18;3.72;;;21.90;90.90;;;;;;9661260;23;20161;-92
2023/08/24 01:58:54;;;;;;;3.80;3.38;;;21.90;91.00;;;;;;9661239;23;20672;-91
2023/08/24 02:02:41;;;;;;;5.18;3.22;;;21.80;91.10;;;;;;9661968;23;20783;-92
2023/08/24 02:06:27;;;;;;;5.93;3.45;;;21.80;91.10;;;;;;9661820;23;20192;-93
2023/08/24 02:10:13;;;;;;;7.82;4.05;;;21.70;91.20;;;;;;9661130;23;20181;-92
2023/08/24 02:13:58;;;;;;;4.15;3.80;;;21.70;91.30;;;;;;9661446;23;20157;-92
2023/08/24 02:17:44;;;;;;;4.70;3.65;;;21.70;91.80;;;;;;9661175;23;20529;-91
2023/08/24 02:21:30;;;;;;;4.32;3.50;;;21.60;91.40;;;;;;9661233;23;20164;-91
2023/08/24 02:25:16;;;;;;;4.15;3.25;;;21.60;91.30;;;;;;9661620;23;20168;-91
2023/08/24 02:29:02;;;;;;;7.53;3.38;;;21.50;91.40;;;;;;9661292;23;20174;-91
2023/08/24 02:32:47;;;;;;;5.03;3.85;;;21.50;91.40;;;;;;9660814;23;20601;-91
2023/08/24 02:36:33;;;;;;;7.63;3.50;;;21.40;91.40;;;;;;9661038;23;20185;-90
2023/08/24 02:40:19;;;;;;;5.82;3.90;;;21.40;91.40;;;;;;9660844;23;20168;-91
2023/08/24 02:44:04;;;;;;;6.15;3.45;;;21.30;91.50;;;;;;9660630;23;20172;-91
2023/08/24 02:47:50;;;;;;;4.28;3.88;;;21.30;91.50;;;;;;9660684;23;20211;-91
2023/08/24 02:51:36;;;;;;;4.47;3.55;;;21.20;91.60;;;;;;9662481;23;20535;-91
2023/08/24 02:55:21;;;;;;;5.20;3.88;;;21.20;91.70;;;;;;9660484;23;20165;-91
2023/08/24 02:59:07;;;;;;;4.28;3.80;;;21.10;91.80;;;;;;9660736;23;20154;-91
2023/08/24 03:02:53;;;;;;;4.40;3.83;;;21.10;91.90;;;;;;9660433;23;20168;-91
2023/08/24 03:06:38;;;;;;;6.90;4.03;;;21.10;92.20;;;;;;9661064;23;20181;-91
2023/08/24 03:10:24;;;;;;;4.32;3.47;;;21.00;91.90;;;;;;9660342;23;20181;-91
2023/08/24 03:14:10;;;;;;;4.95;3.97;;;21.00;92.40;;;;;;9660714;23;20632;-91
2023/08/24 03:17:55;;;;;;;5.93;4.03;;;20.90;92.10;;;;;;9660512;23;20707;-91
2023/08/24 03:21:41;;;;;;;5.95;3.75;;;20.90;92.10;;;;;;9663476;23;20252;-91
2023/08/24 03:25:27;;;;;;;5.10;4.10;;;20.80;92.10;;;;;;9662886;23;20162;-91
2023/08/24 03:29:12;;;;;;;6.25;4.00;;;20.80;92.20;;;;;;9662702;23;20178;-90
2023/08/24 03:32:59;;;;;;;6.80;4.18;;;20.70;92.20;;;;;;9662613;23;20161;-91
2023/08/24 03:36:44;;;;;;;6.55;4.05;;;20.70;92.20;;;;;;9663079;23;20182;-91
2023/08/24 03:40:30;;;;;;;4.65;4.25;;;20.60;92.20;;;;;;9663909;23;20216;-91
2023/08/24 03:44:16;;;;;;;5.68;4.28;;;20.60;92.30;;;;;;9663487;23;20227;-91
2023/08/24 03:48:01;;;;;;;4.35;3.95;;;20.60;92.40;;;;;;9662968;23;20181;-91
2023/08/24 03:51:47;;;;;;;4.75;4.20;;;20.50;92.40;;;;;;9663357;23;20199;-91
2023/08/24 03:55:33;;;;;;;7.93;3.88;;;20.50;92.40;;;;;;9662948;23;20218;-91
2023/08/24 03:59:20;;;;;;;5.22;4.47;;;20.40;92.50;;;;;;9662565;23;20585;-91
2023/08/24 04:03:05;;;;;;;5.15;3.95;;;20.40;92.60;;;;;;9661669;23;20157;-91
2023/08/24 04:06:51;;;;;;;4.32;3.70;;;20.30;92.60;;;;;;9662368;23;20178;-90
2023/08/24 04:10:37;;;;;;;5.03;4.18;;;20.30;92.70;;;;;;9662313;23;20194;-91
2023/08/24 04:14:23;;;;;;;15.93;12.23;;;20.30;92.80;;;;;;9662371;23;20242;-91
2023/08/24 04:18:17;;;;;;;24.85;18.55;;;20.20;92.80;;;;;;9662227;23;20286;-91
2023/08/24 04:22:02;;;;;;;13.95;11.43;;;20.20;92.90;;;;;;9662177;23;20227;-91
2023/08/24 04:25:48;;;;;;;12.57;9.80;;;20.10;92.90;;;;;;9661617;23;20189;-91
2023/08/24 04:29:34;;;;;;;17.65;14.13;;;20.10;92.90;;;;;;9663559;23;20232;-92
2023/08/24 04:33:20;;;;;;;12.00;10.35;;;20.10;93.00;;;;;;9663732;23;20659;-91
2023/08/24 04:37:15;;;;;;;8.82;6.20;;;20.10;93.10;;;;;;9663288;23;20587;-92
2023/08/24 04:41:01;;;;;;;7.10;5.03;;;20.10;93.10;;;;;;9663313;23;20149;-92
2023/08/24 04:44:46;;;;;;;7.57;4.15;;;20.00;93.20;;;;;;9663802;23;20189;-92
2023/08/24 04:48:39;;;;;;;12.10;4.60;;;20.00;93.30;;;;;;9663231;23;20174;-91
2023/08/24 04:52:25;;;;;;;5.20;4.00;;;20.00;93.40;;;;;;9664734;23;20150;-91
2023/08/24 04:56:11;;;;;;;6.25;4.18;;;19.90;93.40;;;;;;9660438;22;20204;-89
2023/08/24 04:59:58;;;;;;;6.15;4.15;;;19.90;93.50;;;;;;9659099;23;20252;-89
2023/08/24 05:03:53;;;;;;;5.68;4.10;;;19.90;93.60;;;;;;9662352;23;20648;-89
2023/08/24 05:07:39;;;;;;;4.45;4.05;;;19.90;93.60;;;;;;9675338;22;20196;-91
2023/08/24 05:11:28;;;;;;;5.25;4.32;;;19.80;93.70;;;;;;9709849;22;20188;-91
2023/08/24 05:15:15;;;;;;;9.07;4.28;;;19.80;93.80;;;;;;9709479;22;20581;-91
2023/08/24 05:19:03;;;;;;;4.07;3.63;;;19.90;94.30;;;;;;9709445;22;20152;-89
2023/08/24 05:22:48;;;;;;;6.22;4.40;;;19.80;93.90;;;;;;9709276;22;20184;-91
2023/08/24 05:26:34;;;;;;;4.38;3.90;;;19.80;94.00;;;;;;9709428;22;20179;-90
2023/08/24 05:30:24;;;;;;;5.00;3.85;;;19.80;94.10;;;;;;9709524;22;20188;-91
2023/08/24 05:34:10;;;;;;;5.97;3.80;;;19.80;94.20;;;;;;9708203;22;20148;-90
2023/08/24 05:37:56;;;;;;;7.97;4.05;;;19.70;94.20;;;;;;9709449;22;20157;-91
2023/08/24 05:41:52;;;;;;;4.18;3.75;;;19.70;94.30;;;;;;9710024;22;20157;-91
2023/08/24 05:45:39;;;;;;;5.82;3.63;;;19.70;94.40;;;;;;9709449;22;20183;-92
2023/08/24 05:49:25;;;;;;;4.63;3.92;;;19.70;94.40;;;;;;9709515;22;20181;-91
2023/08/24 05:53:10;;;;;;;5.70;4.22;;;19.70;94.40;;;;;;9709426;22;20604;-91
2023/08/24 05:57:00;;;;;;;4.57;3.50;;;19.80;94.30;;;;;;9709121;22;20485;-90
2023/08/24 06:00:46;;;;;;;6.30;3.75;;;19.80;94.50;;;;;;9709402;22;20210;-91
2023/08/24 06:04:32;;;;;;;4.72;4.15;;;19.80;94.70;;;;;;9709491;22;20253;-90
2023/08/24 06:08:18;;;;;;;4.30;3.90;;;19.80;94.80;;;;;;9709275;22;20180;-91
2023/08/24 06:12:04;;;;;;;5.63;4.10;;;19.80;95.30;;;;;;9709622;22;20173;-91
2023/08/24 06:15:49;;;;;;;4.40;4.00;;;19.80;95.30;;;;;;9709206;22;20177;-90
2023/08/24 06:19:35;;;;;;;4.80;4.00;;;19.80;95.10;;;;;;9709782;22;20164;-91
2023/08/24 06:23:21;;;;;;;12.38;5.70;;;19.80;95.00;;;;;;9709264;22;20167;-91
2023/08/24 06:27:07;;;;;;;6.82;6.13;;;19.80;97.40;;;;;;9709097;22;20227;-91
2023/08/24 06:30:54;;;;;;;13.45;5.88;;;19.80;98.10;;;;;;9711587;22;20180;-91
2023/08/24 06:34:40;;;;;;;7.20;5.88;;;19.80;98.80;;;;;;9709112;22;20565;-91
2023/08/24 06:38:26;;;;;;;9.57;5.13;;;19.90;99.30;;;;;;9709083;22;20153;-91
2023/08/24 06:42:11;;;;;;;6.80;5.45;;;20.10;99.90;;;;;;9708927;22;20159;-91
2023/08/24 06:45:57;;;;;;;5.25;4.68;;;20.50;99.90;;;;;;9709532;22;20180;-91
2023/08/24 06:49:52;;;;;;;6.13;4.93;;;20.80;99.70;;;;;;9708652;22;20659;-91
2023/08/24 06:53:38;;;;;;;8.85;5.32;;;21.10;99.70;;;;;;9710439;22;20379;-91
2023/08/24 06:57:23;;;;;;;5.15;4.53;;;21.40;99.70;;;;;;9712166;22;20177;-91
2023/08/24 07:01:09;;;;;;;5.80;4.63;;;21.50;99.10;;;;;;9712263;22;20247;-91
2023/08/24 07:04:57;;;;;;;7.45;4.60;;;21.70;98.10;;;;;;9711953;22;20184;-91
2023/08/24 07:08:42;;;;;;;4.53;4.07;;;21.90;96.80;;;;;;9711684;22;20183;-91
2023/08/24 07:12:28;;;;;;;5.63;4.43;;;22.00;95.60;;;;;;9711951;22;20178;-91
2023/08/24 07:16:14;;;;;;;6.90;4.35;;;22.10;95.50;;;;;;9712991;22;20172;-90
2023/08/24 07:19:59;;;;;;;4.25;3.80;;;22.30;95.30;;;;;;9711921;22;20161;-91
2023/08/24 07:23:45;;;;;;;4.97;4.40;;;22.50;94.20;;;;;;9711647;22;20156;-92
2023/08/24 07:27:34;;;;;;;5.05;3.88;;;22.60;94.30;;;;;;9711710;22;20664;-92
2023/08/24 07:31:20;;;;;;;7.95;3.83;;;22.80;94.00;;;;;;9711750;22;20199;-92
2023/08/24 07:35:06;;;;;;;5.05;3.50;;;23.00;95.00;;;;;;9712005;22;20177;-92
2023/08/24 07:38:52;;;;;;;4.22;3.58;;;23.20;94.10;;;;;;9711400;22;20180;-92
2023/08/24 07:42:50;;;;;;;6.75;3.78;;;23.30;93.30;;;;;;9711593;22;20157;-91
2023/08/24 07:46:38;;;;;;;7.25;3.95;;;23.50;93.50;;;;;;9711631;22;20180;-92
2023/08/24 07:50:24;;;;;;;6.18;4.05;;;23.60;92.70;;;;;;9711479;22;20215;-91
2023/08/24 07:54:10;;;;;;;6.40;3.35;;;23.70;91.90;;;;;;9711891;22;20163;-91
2023/08/24 07:57:56;;;;;;;5.30;3.65;;;23.90;92.50;;;;;;9711488;22;20152;-91
2023/08/24 08:01:41;;;;;;;4.70;3.65;;;24.00;93.20;;;;;;9710941;22;20157;-91
2023/08/24 08:05:27;;;;;;;7.30;3.45;;;24.10;91.40;;;;;;9710942;22;20491;-92
2023/08/24 08:09:13;;;;;;;9.02;3.38;;;24.10;90.00;;;;;;9711544;22;20193;-91
2023/08/24 08:12:58;;;;;;;3.97;3.00;;;24.20;91.40;;;;;;9711393;22;20489;-91
2023/08/24 08:16:44;;;;;;;8.57;3.20;;;24.40;90.30;;;;;;9711118;22;20184;-91
2023/08/24 08:20:30;;;;;;;4.50;3.47;;;24.50;89.70;;;;;;9710971;22;20522;-90
2023/08/24 08:24:16;;;;;;;9.07;3.55;;;24.60;90.90;;;;;;9711320;22;20206;-91
2023/08/24 08:28:01;;;;;;;9.10;3.25;;;24.80;91.10;;;;;;9710992;22;20157;-92
2023/08/24 08:31:47;;;;;;;4.07;3.30;;;24.90;90.10;;;;;;9710699;22;20181;-91
2023/08/24 08:35:33;;;;;;;4.78;3.10;;;25.00;87.50;;;;;;9710613;22;20191;-92
2023/08/24 08:39:19;;;;;;;5.65;3.22;;;25.00;87.30;;;;;;9711025;22;20152;-92
2023/08/24 08:43:05;;;;;;;6.20;2.80;;;25.10;87.20;;;;;;9710554;22;20167;-91
2023/08/24 08:46:51;;;;;;;4.38;3.30;;;25.10;85.10;;;;;;9710944;22;20200;-91
2023/08/24 08:50:37;;;;;;;6.35;3.45;;;25.20;84.50;;;;;;9710613;22;20235;-93
2023/08/24 08:54:25;;;;;;;6.03;3.42;;;25.30;84.70;;;;;;9712234;22;20243;-92
2023/08/24 08:58:11;;;;;;;4.70;3.13;;;25.30;82.70;;;;;;9711418;22;20145;-92
2023/08/24 09:01:58;;;;;;;5.10;3.38;;;25.30;82.10;;;;;;9711042;22;20164;-91
2023/08/24 09:05:47;;;;;;;3.90;3.33;;;25.30;83.00;;;;;;9710537;22;20181;-92
2023/08/24 09:09:33;;;;;;;4.13;3.10;;;25.40;83.10;;;;;;9709921;22;20275;-89
2023/08/24 09:13:19;;;;;;;6.38;3.35;;;25.40;82.50;;;;;;9708950;22;20161;-91
2023/08/24 09:17:04;;;;;;;5.38;3.05;;;25.50;83.20;;;;;;9709280;22;20230;-92
2023/08/24 09:20:52;;;;;;;6.35;3.20;;;25.60;81.30;;;;;;9710013;22;20156;-91
2023/08/24 09:24:43;;;;;;;4.32;2.88;;;25.70;78.70;;;;;;9711327;22;20187;-87
2023/08/24 09:28:29;;;;;;;3.13;2.63;;;25.70;77.10;;;;;;9710232;22;20180;-89
2023/08/24 09:32:15;;;;;;;5.50;3.00;;;25.80;79.90;;;;;;9709959;22;20181;-91
2023/08/24 09:36:07;;;;;;;3.72;2.80;;;25.90;78.20;;;;;;9710878;22;20177;-92
2023/08/24 09:40:04;;;;;;;8.13;3.30;;;26.00;76.70;;;;;;9710164;22;20503;-91
2023/08/24 09:43:49;;;;;;;5.38;2.72;;;26.10;78.60;;;;;;9709836;22;20148;-91
2023/08/24 09:47:36;;;;;;;3.08;2.58;;;26.20;75.00;;;;;;9709693;22;20184;-91
2023/08/24 09:51:22;;;;;;;4.78;2.65;;;26.20;74.10;;;;;;9709490;22;20181;-92
2023/08/24 09:55:09;;;;;;;4.28;2.53;;;26.20;72.00;;;;;;9709666;22;20173;-91
2023/08/24 09:58:59;;;;;;;6.63;2.70;;;26.30;72.80;;;;;;9709593;22;20210;-91
2023/08/24 10:02:50;;;;;;;4.00;2.72;;;26.30;73.50;;;;;;9709915;22;20429;-91
2023/08/24 10:06:38;;;;;;;3.72;2.65;;;26.40;70.90;;;;;;9709457;22;20173;-90
2023/08/24 10:10:27;;;;;;;7.15;2.50;;;26.40;72.40;;;;;;9709679;22;20179;-92
2023/08/24 10:14:28;;;;;;;7.25;3.03;;;26.50;74.50;;;;;;9710742;22;20175;-91
2023/08/24 10:18:16;;;;;;;6.78;2.97;;;26.70;75.10;;;;;;9710206;22;20834;-91
2023/08/24 10:22:03;;;;;;;4.90;2.65;;;26.70;74.90;;;;;;9736627;22;20527;-92
2023/08/24 10:25:51;;;;;;;7.45;2.80;;;26.70;74.20;;;;;;9709433;22;20184;-92
2023/08/24 10:29:36;;;;;;;4.80;2.80;;;26.80;75.60;;;;;;9709193;22;20191;-91
2023/08/24 10:33:23;;;;;;;6.68;2.90;;;26.90;76.20;;;;;;9709466;22;20152;-91
2023/08/24 10:37:10;;;;;;;5.85;2.67;;;27.00;77.30;;;;;;9709523;22;20781;-91
2023/08/24 10:41:06;;;;;;;5.38;2.80;;;27.00;74.50;;;;;;9710483;22;20235;-92
2023/08/24 10:44:53;;;;;;;5.15;2.72;;;27.00;73.10;;;;;;9709851;22;20179;-92
2023/08/24 10:48:41;;;;;;;3.53;2.80;;;27.00;72.40;;;;;;9710099;22;20164;-92
2023/08/24 10:52:34;;;;;;;6.78;2.97;;;27.10;72.90;;;;;;9710674;22;20258;-91
2023/08/24 10:56:20;;;;;;;4.82;2.72;;;27.10;72.00;;;;;;9709490;22;20291;-88
2023/08/24 11:00:14;;;;;;;7.50;2.80;;;27.00;71.40;;;;;;9733650;22;20144;-88
2023/08/24 11:04:00;;;;;;;3.38;2.70;;;27.10;74.00;;;;;;9707585;22;20168;-89
2023/08/24 11:08:00;;;;;;;3.20;2.80;;;27.30;74.00;;;;;;9733735;22;20199;-89
2023/08/24 11:12:03;;;;;;;5.75;2.70;;;27.50;72.30;;;;;;9734044;22;20165;-88
2023/08/24 11:15:57;;;;;;;6.43;2.97;;;27.50;74.90;;;;;;9706545;22;20179;-87
2023/08/24 11:19:50;;;;;;;3.65;3.08;;;27.60;73.00;;;;;;9706446;22;20152;-89
2023/08/24 11:23:37;;;;;;;6.07;2.83;;;27.50;70.70;;;;;;9706823;22;20160;-89
2023/08/24 11:27:23;;;;;;;8.77;2.70;;;27.50;73.40;;;;;;9706189;22;20191;-87
2023/08/24 11:31:09;;;;;;;6.07;2.80;;;27.50;72.90;;;;;;9704709;22;20260;-88
2023/08/24 11:34:56;;;;;;;4.03;2.90;;;27.60;73.30;;;;;;9706546;22;20148;-89
2023/08/24 11:38:42;;;;;;;4.75;2.80;;;27.60;73.30;;;;;;9733916;22;20164;-88
2023/08/24 11:42:36;;;;;;;3.60;2.70;;;27.70;73.00;;;;;;9709751;22;20207;-89
2023/08/24 11:46:21;;;;;;;4.95;3.08;;;27.70;71.90;;;;;;9708266;22;20629;-87
2023/08/24 11:50:08;;;;;;;3.88;2.97;;;27.80;72.10;;;;;;9709392;22;20202;-89
2023/08/24 11:53:56;;;;;;;6.10;2.70;;;27.80;73.00;;;;;;9709907;22;20159;-88
2023/08/24 11:57:42;;;;;;;3.90;2.97;;;28.00;72.50;;;;;;9707653;22;20679;-89
2023/08/24 12:01:28;;;;;;;4.15;2.88;;;28.10;71.10;;;;;;9709871;22;20161;-89
2023/08/24 12:05:25;;;;;;;4.82;2.55;;;28.00;70.40;;;;;;9709376;22;20217;-88
2023/08/24 12:09:11;;;;;;;4.22;2.78;;;28.00;72.00;;;;;;9707568;22;20259;-89
2023/08/24 12:13:06;;;;;;;9.30;2.92;;;28.00;72.40;;;;;;9733136;22;20172;-88
2023/08/24 12:16:53;;;;;;;6.88;2.80;;;28.00;71.80;;;;;;9784797;22;20171;-86
2023/08/24 12:20:40;;;;;;;4.10;2.50;;;28.00;73.40;;;;;;9725430;22;20173;-89
2023/08/24 12:24:25;;;;;;;5.85;2.38;;;28.00;74.60;;;;;;9710669;22;20191;-89
2023/08/24 12:28:13;;;;;;;7.85;2.95;;;28.00;75.80;;;;;;9735367;22;20164;-88
2023/08/24 12:31:59;;;;;;;6.70;2.75;;;28.00;75.60;;;;;;9708147;22;20643;-89
2023/08/24 12:35:45;;;;;;;3.45;2.90;;;28.10;75.60;;;;;;9708952;22;20705;-89
2023/08/24 12:39:39;;;;;;;4.47;3.03;;;28.10;76.70;;;;;;9708552;22;20161;-88
2023/08/24 12:43:26;;;;;;;11.60;2.97;;;28.20;76.60;;;;;;9708065;22;20145;-89
2023/08/24 12:47:11;;;;;;;12.43;3.40;;;28.20;75.60;;;;;;9707809;22;20521;-88
2023/08/24 12:50:57;;;;;;;5.85;3.00;;;28.20;75.10;;;;;;9736043;22;20172;-89
2023/08/24 12:54:43;;;;;;;3.80;2.80;;;28.20;74.70;;;;;;9707861;22;20226;-88
2023/08/24 12:58:28;;;;;;;5.15;2.90;;;28.20;75.70;;;;;;9708020;22;20279;-87
2023/08/24 13:02:14;;;;;;;4.40;3.00;;;28.20;74.90;;;;;;9735368;22;20153;-88
2023/08/24 13:05:59;;;;;;;8.45;2.90;;;28.10;75.50;;;;;;9706818;22;20181;-87
2023/08/24 13:09:45;;;;;;;5.55;3.17;;;28.10;75.50;;;;;;9707185;22;20177;-89
2023/08/24 13:13:31;;;;;;;7.85;2.78;;;28.10;74.60;;;;;;9707842;22;20167;-88
2023/08/24 13:17:16;;;;;;;3.28;2.95;;;28.20;75.10;;;;;;9734381;22;20187;-90
2023/08/24 13:21:02;;;;;;;4.25;2.67;;;28.20;73.00;;;;;;9734918;22;20164;-89
2023/08/24 13:24:47;;;;;;;4.55;2.80;;;28.20;72.80;;;;;;9708336;22;20165;-88
2023/08/24 13:28:33;;;;;;;6.20;3.08;;;28.20;73.70;;;;;;9735334;22;20498;-89
2023/08/24 13:32:19;;;;;;;3.97;2.95;;;28.30;73.60;;;;;;9733890;22;20172;-89
2023/08/24 13:36:05;;;;;;;9.02;3.30;;;28.30;74.00;;;;;;9708863;22;20172;-88
2023/08/24 13:39:51;;;;;;;6.72;3.40;;;28.30;74.00;;;;;;9707350;22;20168;-89
2023/08/24 13:43:38;;;;;;;10.73;3.17;;;28.40;74.60;;;;;;9706834;22;20157;-88
2023/08/24 13:47:23;;;;;;;3.90;3.10;;;28.50;74.00;;;;;;9707125;22;20189;-88
2023/08/24 13:51:09;;;;;;;6.03;3.15;;;28.50;74.50;;;;;;9707433;22;20180;-89
2023/08/24 13:54:54;;;;;;;7.70;4.50;;;28.60;77.00;;;;;;9706875;22;20531;-87
2023/08/24 13:58:40;;;;;;;9.38;4.15;;;28.60;76.20;;;;;;9733447;22;20207;-88
2023/08/24 14:02:26;;;;;;;6.47;4.05;;;28.60;76.30;;;;;;9708237;22;20161;-88
2023/08/24 14:06:12;;;;;;;5.03;3.90;;;28.60;76.60;;;;;;9707329;22;20187;-89
2023/08/24 14:09:58;;;;;;;6.28;4.13;;;28.70;77.70;;;;;;9705835;22;20172;-88
2023/08/24 14:13:44;;;;;;;7.80;4.13;;;28.60;73.10;;;;;;9707160;22;20145;-88
2023/08/24 14:17:30;;;;;;;5.95;3.92;;;28.60;73.30;;;;;;9706530;22;20177;-89
2023/08/24 14:21:15;;;;;;;7.13;3.92;;;28.50;74.00;;;;;;9734092;22;20144;-88
2023/08/24 14:25:01;;;;;;;7.20;3.60;;;28.60;75.60;;;;;;9733177;22;20180;-89
2023/08/24 14:28:57;;;;;;;5.30;4.13;;;28.70;76.90;;;;;;9704957;22;20206;-88
2023/08/24 14:32:43;;;;;;;9.98;4.20;;;28.80;76.80;;;;;;9707596;22;20160;-90
2023/08/24 14:36:29;;;;;;;7.03;3.95;;;28.80;76.40;;;;;;9705868;22;20180;-89
2023/08/24 14:40:16;;;;;;;4.75;3.80;;;28.80;76.80;;;;;;9706173;22;20161;-89
2023/08/24 14:44:01;;;;;;;6.43;4.20;;;28.90;75.60;;;;;;9706892;22;20191;-88
2023/08/24 14:47:47;;;;;;;7.40;4.05;;;28.90;75.40;;;;;;9735353;22;20168;-89
2023/08/24 14:51:33;;;;;;;4.00;3.60;;;28.90;76.00;;;;;;9734665;22;20177;-88
2023/08/24 14:55:18;;;;;;;7.20;4.40;;;29.00;75.20;;;;;;9734454;22;20149;-89
2023/08/24 14:59:04;;;;;;;8.23;4.10;;;29.00;74.50;;;;;;9706667;22;20716;-90
2023/08/24 15:02:50;;;;;;;4.88;3.65;;;29.00;75.20;;;;;;9707230;22;20153;-89
2023/08/24 15:06:35;;;;;;;4.40;4.00;;;28.90;74.70;;;;;;9707495;22;20173;-88
2023/08/24 15:10:21;;;;;;;11.43;4.28;;;28.90;75.90;;;;;;9708619;22;20185;-88
2023/08/24 15:14:06;;;;;;;5.93;3.83;;;29.00;76.20;;;;;;9706504;22;20156;-88
2023/08/24 15:17:52;;;;;;;7.88;4.38;;;29.00;76.50;;;;;;9709129;22;20180;-89
2023/08/24 15:21:38;;;;;;;6.32;3.80;;;29.10;76.40;;;;;;9710145;22;20177;-89
2023/08/24 15:25:23;;;;;;;7.47;4.18;;;29.10;76.10;;;;;;9709553;22;20157;-89
2023/08/24 15:29:15;;;;;;;5.93;3.60;;;29.10;75.20;;;;;;9735879;22;20164;-89
2023/08/24 15:33:01;;;;;;;5.15;3.65;;;29.10;74.70;;;;;;9710946;22;20236;-88
2023/08/24 15:36:46;;;;;;;5.55;3.67;;;29.20;74.70;;;;;;9710958;22;20183;-89
2023/08/24 15:40:32;;;;;;;4.90;3.70;;;29.20;74.70;;;;;;9751362;22;20163;-88
2023/08/24 15:44:17;;;;;;;4.72;3.30;;;29.20;74.70;;;;;;9752800;22;20181;-87
2023/08/24 15:48:03;;;;;;;10.32;3.70;;;29.20;75.00;;;;;;9709739;22;20212;-89
2023/08/24 15:51:49;;;;;;;8.27;3.78;;;29.20;74.60;;;;;;9709241;22;20184;-89
2023/08/24 15:55:35;;;;;;;3.70;3.40;;;29.20;73.60;;;;;;9735423;22;20148;-89
2023/08/24 15:59:21;;;;;;;5.47;3.50;;;29.30;74.30;;;;;;9706464;22;20161;-89
2023/08/24 16:03:06;;;;;;;5.68;3.30;;;29.30;74.50;;;;;;9708115;22;20166;-89
2023/08/24 16:06:52;;;;;;;4.68;3.60;;;29.30;75.00;;;;;;9708281;22;20181;-89
2023/08/24 16:10:38;;;;;;;3.63;3.33;;;29.30;75.10;;;;;;9707079;22;20180;-88
2023/08/24 16:14:23;;;;;;;4.43;3.28;;;29.20;74.20;;;;;;9706597;22;20182;-89
2023/08/24 16:18:09;;;;;;;5.43;3.42;;;29.20;74.90;;;;;;9705937;22;20172;-89
2023/08/24 16:21:55;;;;;;;3.63;3.33;;;29.30;75.10;;;;;;9706710;22;20168;-88
2023/08/24 16:25:40;;;;;;;4.07;3.63;;;29.20;75.60;;;;;;9735231;22;20243;-90
2023/08/24 16:29:27;;;;;;;6.15;3.75;;;29.20;74.90;;;;;;9738517;22;20269;-89
2023/08/24 16:33:13;;;;;;;3.83;3.00;;;29.30;75.50;;;;;;9713012;22;20167;-88
2023/08/24 16:36:59;;;;;;;3.47;3.10;;;29.30;75.50;;;;;;9739744;22;20234;-89
2023/08/24 16:40:46;;;;;;;4.50;3.17;;;29.30;75.30;;;;;;9724768;22;20160;-91
2023/08/24 16:44:32;;;;;;;8.18;3.20;;;29.20;75.80;;;;;;9772114;22;20175;-90
2023/08/24 16:48:18;;;;;;;8.07;3.72;;;29.20;76.70;;;;;;9732648;22;20203;-90
2023/08/24 16:52:04;;;;;;;5.10;3.22;;;29.20;77.20;;;;;;9716385;22;20227;-90
2023/08/24 16:55:55;;;;;;;5.57;3.53;;;29.20;77.70;;;;;;9715564;22;20206;-91
2023/08/24 16:59:58;;;;;;;4.88;2.85;;;29.10;78.90;;;;;;9714551;22;20159;-89
2023/08/24 17:03:44;;;;;;;3.78;3.17;;;29.10;79.50;;;;;;9712265;22;20148;-90
2023/08/24 17:07:30;;;;;;;6.43;3.33;;;29.10;79.20;;;;;;9713657;22;20655;-90
2023/08/24 17:11:15;;;;;;;9.52;3.30;;;29.10;79.20;;;;;;9710426;22;20275;-90
2023/08/24 17:15:01;;;;;;;7.82;3.40;;;29.00;80.70;;;;;;9709649;22;20592;-90
2023/08/24 17:19:15;;;;;;;12.20;3.70;;;29.00;81.40;;;;;;9708229;22;20254;-89
2023/08/24 17:23:03;;;;;;;8.90;3.70;;;29.00;81.30;;;;;;9710307;22;20160;-89
2023/08/24 17:26:50;;;;;;;5.95;3.40;;;29.00;81.10;;;;;;9709256;22;20208;-89
2023/08/24 17:30:36;;;;;;;8.90;3.72;;;28.90;81.40;;;;;;9709748;22;20177;-90
2023/08/24 17:34:22;;;;;;;4.13;3.42;;;28.90;82.40;;;;;;9709580;22;20155;-90
2023/08/24 17:38:20;;;;;;;4.82;3.30;;;28.90;82.40;;;;;;9709008;22;20559;-89
2023/08/24 17:42:06;;;;;;;6.30;3.78;;;28.80;82.10;;;;;;9710167;22;20145;-91
2023/08/24 17:45:52;;;;;;;6.10;3.10;;;28.80;82.40;;;;;;9736847;22;20256;-90
2023/08/24 17:49:38;;;;;;;7.25;3.70;;;28.70;82.20;;;;;;9736926;22;20168;-90
2023/08/24 17:53:34;;;;;;;5.25;2.97;;;28.60;82.00;;;;;;9709869;22;20172;-90
2023/08/24 17:57:21;;;;;;;3.97;2.60;;;28.60;82.20;;;;;;9709370;22;20242;-89
2023/08/24 18:01:06;;;;;;;4.60;3.15;;;28.50;82.00;;;;;;9709145;22;20657;-90
2023/08/24 18:04:52;;;;;;;3.63;3.15;;;28.50;82.10;;;;;;9709525;22;20479;-89
2023/08/24 18:08:46;;;;;;;4.97;3.38;;;28.40;82.10;;;;;;9709285;22;20207;-90
2023/08/24 18:12:35;;;;;;;4.35;3.40;;;28.40;82.20;;;;;;9707977;22;20176;-89
2023/08/24 18:16:22;;;;;;;6.65;3.50;;;28.30;82.20;;;;;;9708715;22;20639;-89
2023/08/24 18:20:09;;;;;;;5.65;3.15;;;28.30;82.30;;;;;;9709170;22;20236;-89
2023/08/24 18:23:54;;;;;;;3.85;3.08;;;28.20;82.20;;;;;;9712365;22;20662;-89
2023/08/24 18:27:41;;;;;;;5.20;2.85;;;28.20;81.80;;;;;;9685366;22;20205;-88
2023/08/24 18:31:27;;;;;;;5.68;3.25;;;28.20;82.20;;;;;;9715467;22;20255;-88
2023/08/24 18:35:12;;;;;;;4.97;2.72;;;28.10;82.00;;;;;;9716866;22;20153;-88
2023/08/24 18:38:58;;;;;;;4.35;2.83;;;28.00;80.80;;;;;;9718221;22;20180;-87
2023/08/24 18:42:43;;;;;;;3.47;3.00;;;28.00;81.00;;;;;;9715976;22;20239;-88
2023/08/24 18:46:29;;;;;;;3.10;2.80;;;28.00;81.20;;;;;;9709780;22;20241;-88
2023/08/24 18:50:15;;;;;;;4.00;2.85;;;28.00;81.10;;;;;;9738600;22;20207;-89
2023/08/24 18:54:00;;;;;;;4.82;2.90;;;27.90;80.70;;;;;;9713644;22;20160;-88
2023/08/24 18:57:46;;;;;;;10.60;3.35;;;27.90;80.60;;;;;;9711689;22;20246;-89
2023/08/24 19:01:39;;;;;;;5.47;2.80;;;27.90;80.70;;;;;;9712711;22;20917;-89
2023/08/24 19:05:29;;;;;;;5.82;3.13;;;27.90;81.00;;;;;;9742712;22;20217;-91
2023/08/24 19:09:14;;;;;;;4.93;2.80;;;27.80;81.00;;;;;;9760252;22;20179;-89
2023/08/24 19:13:00;;;;;;;10.15;3.50;;;27.80;80.90;;;;;;9718977;22;20231;-89
2023/08/24 19:16:45;;;;;;;8.98;3.20;;;27.70;81.40;;;;;;9712205;22;20181;-89
2023/08/24 19:20:41;;;;;;;4.82;3.60;;;27.60;81.70;;;;;;9711345;22;20537;-89
2023/08/24 19:24:31;;;;;;;6.40;3.05;;;27.50;81.80;;;;;;9709125;22;20151;-89
2023/08/24 19:28:18;;;;;;;5.05;3.20;;;27.50;82.10;;;;;;9709358;22;20229;-89
2023/08/24 19:32:05;;;;;;;3.72;3.13;;;27.50;81.80;;;;;;9735919;22;20290;-89
2023/08/24 19:36:01;;;;;;;6.75;3.42;;;27.40;81.10;;;;;;9735687;22;20779;-89
2023/08/24 19:39:57;;;;;;;6.03;3.20;;;27.40;80.40;;;;;;9708558;22;20152;-89